sensor_id;sensor_type;location;lat;lon;timestamp;P1;durP1;ratioP1;P2;durP2;ratioP2
22829;SDS011;11581;51.250;6.778;2022-12-07T00:01:28;10.35;;;6.53;;
22829;SDS011;11581;51.250;6.778;2022-12-07T00:03:58;8.35;;;6.28;;
22829;SDS011;11581;51.250;6.778;2022-12-07T00:06:30;9.35;;;6.25;;
22829;SDS011;11581;51.250;6.778;2022-12-07T00:08:58;9.45;;;6.32;;
22829;SDS011;11581;51.250;6.778;2022-12-07T00:11:26;9.70;;;6.32;;
22829;SDS011;11581;51.250;6.778;2022-12-07T00:13:56;8.98;;;6.55;;
22829;SDS011;11581;51.250;6.778;2022-12-07T00:16:24;10.00;;;7.25;;
22829;SDS011;11581;51.250;6.778;2022-12-07T00:18:53;10.18;;;7.00;;
22829;SDS011;11581;51.250;6.778;2022-12-07T00:21:20;8.98;;;5.80;;
22829;SDS011;11581;51.250;6.778;2022-12-07T00:23:49;9.95;;;6.78;;
22829;SDS011;11581;51.250;6.778;2022-12-07T00:26:18;10.35;;;7.20;;
22829;SDS011;11581;51.250;6.778;2022-12-07T00:28:46;8.50;;;6.20;;
22829;SDS011;11581;51.250;6.778;2022-12-07T00:31:16;8.18;;;6.50;;
22829;SDS011;11581;51.250;6.778;2022-12-07T00:33:45;10.70;;;7.13;;
22829;SDS011;11581;51.250;6.778;2022-12-07T00:36:12;13.60;;;7.05;;
22829;SDS011;11581;51.250;6.778;2022-12-07T00:38:40;11.25;;;6.35;;
22829;SDS011;11581;51.250;6.778;2022-12-07T00:41:09;9.52;;;6.35;;
22829;SDS011;11581;51.250;6.778;2022-12-07T00:43:38;12.15;;;6.75;;
22829;SDS011;11581;51.250;6.778;2022-12-07T00:46:05;8.13;;;6.72;;
22829;SDS011;11581;51.250;6.778;2022-12-07T00:48:33;9.20;;;6.63;;
22829;SDS011;11581;51.250;6.778;2022-12-07T00:51:00;9.43;;;6.35;;
22829;SDS011;11581;51.250;6.778;2022-12-07T00:53:28;8.68;;;6.45;;
22829;SDS011;11581;51.250;6.778;2022-12-07T00:55:55;9.70;;;7.18;;
22829;SDS011;11581;51.250;6.778;2022-12-07T00:58:22;9.80;;;6.50;;
22829;SDS011;11581;51.250;6.778;2022-12-07T01:00:50;12.57;;;7.18;;
22829;SDS011;11581;51.250;6.778;2022-12-07T01:03:17;9.80;;;6.95;;
22829;SDS011;11581;51.250;6.778;2022-12-07T01:05:51;9.80;;;6.40;;
22829;SDS011;11581;51.250;6.778;2022-12-07T01:08:19;9.43;;;7.68;;
22829;SDS011;11581;51.250;6.778;2022-12-07T01:10:47;8.48;;;7.00;;
22829;SDS011;11581;51.250;6.778;2022-12-07T01:13:17;12.23;;;6.47;;
22829;SDS011;11581;51.250;6.778;2022-12-07T01:15:44;9.60;;;6.88;;
22829;SDS011;11581;51.250;6.778;2022-12-07T01:18:11;10.02;;;6.88;;
22829;SDS011;11581;51.250;6.778;2022-12-07T01:20:38;10.38;;;6.63;;
22829;SDS011;11581;51.250;6.778;2022-12-07T01:23:06;11.60;;;7.05;;
22829;SDS011;11581;51.250;6.778;2022-12-07T01:25:33;11.80;;;7.40;;
22829;SDS011;11581;51.250;6.778;2022-12-07T01:28:00;8.70;;;6.80;;
22829;SDS011;11581;51.250;6.778;2022-12-07T01:30:26;10.20;;;7.13;;
22829;SDS011;11581;51.250;6.778;2022-12-07T01:32:53;8.45;;;6.60;;
22829;SDS011;11581;51.250;6.778;2022-12-07T01:35:21;10.18;;;7.60;;
22829;SDS011;11581;51.250;6.778;2022-12-07T01:37:48;12.18;;;6.65;;
22829;SDS011;11581;51.250;6.778;2022-12-07T01:40:17;16.33;;;7.30;;
22829;SDS011;11581;51.250;6.778;2022-12-07T01:42:43;9.18;;;6.95;;
22829;SDS011;11581;51.250;6.778;2022-12-07T01:48:05;11.80;;;7.40;;
22829;SDS011;11581;51.250;6.778;2022-12-07T01:50:35;8.20;;;6.15;;
22829;SDS011;11581;51.250;6.778;2022-12-07T01:53:05;8.40;;;6.40;;
22829;SDS011;11581;51.250;6.778;2022-12-07T01:55:38;9.00;;;6.95;;
22829;SDS011;11581;51.250;6.778;2022-12-07T01:58:09;11.20;;;7.47;;
22829;SDS011;11581;51.250;6.778;2022-12-07T02:00:37;9.05;;;6.97;;
22829;SDS011;11581;51.250;6.778;2022-12-07T02:03:06;9.05;;;7.07;;
22829;SDS011;11581;51.250;6.778;2022-12-07T02:05:36;9.38;;;6.97;;
22829;SDS011;11581;51.250;6.778;2022-12-07T02:08:04;9.35;;;7.05;;
22829;SDS011;11581;51.250;6.778;2022-12-07T02:10:32;9.57;;;7.05;;
22829;SDS011;11581;51.250;6.778;2022-12-07T02:13:01;9.60;;;7.28;;
22829;SDS011;11581;51.250;6.778;2022-12-07T02:15:34;9.57;;;6.97;;
22829;SDS011;11581;51.250;6.778;2022-12-07T02:18:13;10.55;;;7.13;;
22829;SDS011;11581;51.250;6.778;2022-12-07T02:20:49;9.05;;;7.00;;
22829;SDS011;11581;51.250;6.778;2022-12-07T02:23:29;12.02;;;7.30;;
22829;SDS011;11581;51.250;6.778;2022-12-07T02:29:16;10.52;;;6.63;;
22829;SDS011;11581;51.250;6.778;2022-12-07T02:31:51;9.88;;;7.50;;
22829;SDS011;11581;51.250;6.778;2022-12-07T02:34:29;9.95;;;7.57;;
22829;SDS011;11581;51.250;6.778;2022-12-07T02:37:02;10.45;;;7.30;;
22829;SDS011;11581;51.250;6.778;2022-12-07T02:42:09;9.98;;;7.03;;
22829;SDS011;11581;51.250;6.778;2022-12-07T02:44:41;8.90;;;7.45;;
22829;SDS011;11581;51.250;6.778;2022-12-07T02:47:09;14.85;;;7.65;;
22829;SDS011;11581;51.250;6.778;2022-12-07T02:49:38;8.50;;;6.60;;
22829;SDS011;11581;51.250;6.778;2022-12-07T02:52:07;9.57;;;6.93;;
22829;SDS011;11581;51.250;6.778;2022-12-07T02:54:33;10.02;;;7.70;;
22829;SDS011;11581;51.250;6.778;2022-12-07T02:57:02;11.48;;;7.05;;
22829;SDS011;11581;51.250;6.778;2022-12-07T02:59:45;11.05;;;7.68;;
22829;SDS011;11581;51.250;6.778;2022-12-07T03:02:25;9.77;;;7.47;;
22829;SDS011;11581;51.250;6.778;2022-12-07T03:05:01;11.18;;;7.68;;
22829;SDS011;11581;51.250;6.778;2022-12-07T03:07:39;9.18;;;7.05;;
22829;SDS011;11581;51.250;6.778;2022-12-07T03:10:17;10.95;;;7.97;;
22829;SDS011;11581;51.250;6.778;2022-12-07T03:12:51;9.60;;;7.22;;
22829;SDS011;11581;51.250;6.778;2022-12-07T03:15:29;10.20;;;7.07;;
22829;SDS011;11581;51.250;6.778;2022-12-07T03:20:28;8.80;;;6.22;;
22829;SDS011;11581;51.250;6.778;2022-12-07T03:22:56;11.82;;;6.70;;
22829;SDS011;11581;51.250;6.778;2022-12-07T03:25:24;10.82;;;6.97;;
22829;SDS011;11581;51.250;6.778;2022-12-07T03:27:52;9.35;;;6.95;;
22829;SDS011;11581;51.250;6.778;2022-12-07T03:30:24;8.05;;;6.90;;
22829;SDS011;11581;51.250;6.778;2022-12-07T03:32:58;9.68;;;7.70;;
22829;SDS011;11581;51.250;6.778;2022-12-07T03:35:29;10.10;;;7.25;;
22829;SDS011;11581;51.250;6.778;2022-12-07T03:38:02;8.35;;;6.85;;
22829;SDS011;11581;51.250;6.778;2022-12-07T03:40:37;7.47;;;6.18;;
22829;SDS011;11581;51.250;6.778;2022-12-07T03:43:08;8.70;;;6.18;;
22829;SDS011;11581;51.250;6.778;2022-12-07T03:45:38;10.25;;;7.20;;
22829;SDS011;11581;51.250;6.778;2022-12-07T03:48:07;8.73;;;6.65;;
22829;SDS011;11581;51.250;6.778;2022-12-07T03:50:48;8.98;;;6.47;;
22829;SDS011;11581;51.250;6.778;2022-12-07T03:53:19;9.75;;;6.53;;
22829;SDS011;11581;51.250;6.778;2022-12-07T03:55:52;9.30;;;7.30;;
22829;SDS011;11581;51.250;6.778;2022-12-07T03:58:20;11.88;;;6.60;;
22829;SDS011;11581;51.250;6.778;2022-12-07T04:00:51;11.07;;;6.55;;
22829;SDS011;11581;51.250;6.778;2022-12-07T04:03:19;10.00;;;6.68;;
22829;SDS011;11581;51.250;6.778;2022-12-07T04:05:46;12.25;;;7.32;;
22829;SDS011;11581;51.250;6.778;2022-12-07T04:08:13;7.70;;;6.28;;
22829;SDS011;11581;51.250;6.778;2022-12-07T04:10:40;9.45;;;6.80;;
22829;SDS011;11581;51.250;6.778;2022-12-07T04:13:06;9.68;;;6.68;;
22829;SDS011;11581;51.250;6.778;2022-12-07T04:15:33;8.77;;;6.75;;
22829;SDS011;11581;51.250;6.778;2022-12-07T04:18:01;8.25;;;5.90;;
22829;SDS011;11581;51.250;6.778;2022-12-07T04:20:28;8.82;;;6.13;;
22829;SDS011;11581;51.250;6.778;2022-12-07T04:22:55;11.40;;;6.75;;
22829;SDS011;11581;51.250;6.778;2022-12-07T04:25:21;8.15;;;6.45;;
22829;SDS011;11581;51.250;6.778;2022-12-07T04:27:48;9.40;;;6.65;;
22829;SDS011;11581;51.250;6.778;2022-12-07T04:30:15;6.80;;;5.63;;
22829;SDS011;11581;51.250;6.778;2022-12-07T04:32:42;9.50;;;6.50;;
22829;SDS011;11581;51.250;6.778;2022-12-07T04:35:10;9.88;;;6.13;;
22829;SDS011;11581;51.250;6.778;2022-12-07T04:37:37;9.38;;;6.15;;
22829;SDS011;11581;51.250;6.778;2022-12-07T04:40:06;8.88;;;5.93;;
22829;SDS011;11581;51.250;6.778;2022-12-07T04:42:36;7.60;;;5.68;;
22829;SDS011;11581;51.250;6.778;2022-12-07T04:45:03;9.02;;;5.82;;
22829;SDS011;11581;51.250;6.778;2022-12-07T04:47:31;9.05;;;5.30;;
22829;SDS011;11581;51.250;6.778;2022-12-07T04:49:58;8.98;;;5.75;;
22829;SDS011;11581;51.250;6.778;2022-12-07T04:52:26;7.43;;;5.32;;
22829;SDS011;11581;51.250;6.778;2022-12-07T04:54:53;7.43;;;5.63;;
22829;SDS011;11581;51.250;6.778;2022-12-07T04:57:20;7.18;;;5.07;;
22829;SDS011;11581;51.250;6.778;2022-12-07T04:59:46;7.90;;;5.60;;
22829;SDS011;11581;51.250;6.778;2022-12-07T05:02:13;8.02;;;5.38;;
22829;SDS011;11581;51.250;6.778;2022-12-07T05:04:40;7.88;;;5.20;;
22829;SDS011;11581;51.250;6.778;2022-12-07T05:07:07;8.40;;;4.70;;
22829;SDS011;11581;51.250;6.778;2022-12-07T05:09:35;8.48;;;5.35;;
22829;SDS011;11581;51.250;6.778;2022-12-07T05:12:01;8.30;;;4.47;;
22829;SDS011;11581;51.250;6.778;2022-12-07T05:14:28;10.18;;;5.35;;
22829;SDS011;11581;51.250;6.778;2022-12-07T05:16:55;10.20;;;4.55;;
22829;SDS011;11581;51.250;6.778;2022-12-07T05:19:22;7.95;;;5.10;;
22829;SDS011;11581;51.250;6.778;2022-12-07T05:21:49;8.23;;;4.40;;
22829;SDS011;11581;51.250;6.778;2022-12-07T05:24:18;8.73;;;4.88;;
22829;SDS011;11581;51.250;6.778;2022-12-07T05:26:46;9.15;;;5.18;;
22829;SDS011;11581;51.250;6.778;2022-12-07T05:29:13;6.68;;;4.45;;
22829;SDS011;11581;51.250;6.778;2022-12-07T05:31:41;6.88;;;4.65;;
22829;SDS011;11581;51.250;6.778;2022-12-07T05:34:09;6.90;;;4.32;;
22829;SDS011;11581;51.250;6.778;2022-12-07T05:36:37;6.68;;;4.20;;
22829;SDS011;11581;51.250;6.778;2022-12-07T05:39:04;7.82;;;4.05;;
22829;SDS011;11581;51.250;6.778;2022-12-07T05:41:31;9.88;;;4.82;;
22829;SDS011;11581;51.250;6.778;2022-12-07T05:44:16;8.43;;;4.13;;
22829;SDS011;11581;51.250;6.778;2022-12-07T05:46:43;7.53;;;4.13;;
22829;SDS011;11581;51.250;6.778;2022-12-07T05:49:10;6.10;;;3.78;;
22829;SDS011;11581;51.250;6.778;2022-12-07T05:51:37;9.55;;;4.90;;
22829;SDS011;11581;51.250;6.778;2022-12-07T05:54:04;9.10;;;4.88;;
22829;SDS011;11581;51.250;6.778;2022-12-07T05:56:33;5.85;;;3.97;;
22829;SDS011;11581;51.250;6.778;2022-12-07T05:59:01;6.75;;;3.80;;
22829;SDS011;11581;51.250;6.778;2022-12-07T06:01:46;7.50;;;4.18;;
22829;SDS011;11581;51.250;6.778;2022-12-07T06:04:13;5.75;;;4.10;;
22829;SDS011;11581;51.250;6.778;2022-12-07T06:06:40;6.47;;;4.25;;
22829;SDS011;11581;51.250;6.778;2022-12-07T06:09:07;8.82;;;4.53;;
22829;SDS011;11581;51.250;6.778;2022-12-07T06:11:34;7.07;;;4.50;;
22829;SDS011;11581;51.250;6.778;2022-12-07T06:14:18;5.47;;;3.58;;
22829;SDS011;11581;51.250;6.778;2022-12-07T06:16:47;6.20;;;3.85;;
22829;SDS011;11581;51.250;6.778;2022-12-07T06:19:14;7.90;;;4.15;;
22829;SDS011;11581;51.250;6.778;2022-12-07T06:21:40;6.28;;;4.25;;
22829;SDS011;11581;51.250;6.778;2022-12-07T06:24:08;6.30;;;3.90;;
22829;SDS011;11581;51.250;6.778;2022-12-07T06:26:36;6.38;;;3.78;;
22829;SDS011;11581;51.250;6.778;2022-12-07T06:29:03;7.80;;;4.50;;
22829;SDS011;11581;51.250;6.778;2022-12-07T06:31:30;6.30;;;3.60;;
22829;SDS011;11581;51.250;6.778;2022-12-07T06:34:02;9.43;;;4.85;;
22829;SDS011;11581;51.250;6.778;2022-12-07T06:36:30;8.75;;;4.43;;
22829;SDS011;11581;51.250;6.778;2022-12-07T06:38:57;7.05;;;3.50;;
22829;SDS011;11581;51.250;6.778;2022-12-07T06:41:24;6.90;;;4.13;;
22829;SDS011;11581;51.250;6.778;2022-12-07T06:43:51;8.07;;;3.80;;
22829;SDS011;11581;51.250;6.778;2022-12-07T06:46:17;7.13;;;3.83;;
22829;SDS011;11581;51.250;6.778;2022-12-07T06:48:45;5.65;;;3.53;;
22829;SDS011;11581;51.250;6.778;2022-12-07T06:51:13;7.85;;;4.80;;
22829;SDS011;11581;51.250;6.778;2022-12-07T06:53:40;7.78;;;3.58;;
22829;SDS011;11581;51.250;6.778;2022-12-07T06:56:07;7.70;;;4.13;;
22829;SDS011;11581;51.250;6.778;2022-12-07T06:58:34;11.32;;;4.38;;
22829;SDS011;11581;51.250;6.778;2022-12-07T07:01:01;7.25;;;3.92;;
22829;SDS011;11581;51.250;6.778;2022-12-07T07:03:28;13.07;;;4.20;;
22829;SDS011;11581;51.250;6.778;2022-12-07T07:05:55;8.48;;;4.43;;
22829;SDS011;11581;51.250;6.778;2022-12-07T07:08:25;7.25;;;4.30;;
22829;SDS011;11581;51.250;6.778;2022-12-07T07:10:52;8.52;;;3.90;;
22829;SDS011;11581;51.250;6.778;2022-12-07T07:13:19;7.32;;;3.97;;
22829;SDS011;11581;51.250;6.778;2022-12-07T07:15:46;6.78;;;4.45;;
22829;SDS011;11581;51.250;6.778;2022-12-07T07:18:12;7.72;;;4.40;;
22829;SDS011;11581;51.250;6.778;2022-12-07T07:20:39;7.60;;;3.80;;
22829;SDS011;11581;51.250;6.778;2022-12-07T07:23:06;7.65;;;3.95;;
22829;SDS011;11581;51.250;6.778;2022-12-07T07:25:36;6.18;;;3.83;;
22829;SDS011;11581;51.250;6.778;2022-12-07T07:28:03;6.32;;;4.30;;
22829;SDS011;11581;51.250;6.778;2022-12-07T07:30:30;8.38;;;4.63;;
22829;SDS011;11581;51.250;6.778;2022-12-07T07:32:57;7.10;;;4.38;;
22829;SDS011;11581;51.250;6.778;2022-12-07T07:35:24;6.65;;;4.05;;
22829;SDS011;11581;51.250;6.778;2022-12-07T07:37:51;8.40;;;4.72;;
22829;SDS011;11581;51.250;6.778;2022-12-07T07:40:18;7.10;;;4.05;;
22829;SDS011;11581;51.250;6.778;2022-12-07T07:42:48;5.32;;;4.03;;
22829;SDS011;11581;51.250;6.778;2022-12-07T07:45:17;7.60;;;3.60;;
22829;SDS011;11581;51.250;6.778;2022-12-07T07:47:46;6.47;;;3.33;;
22829;SDS011;11581;51.250;6.778;2022-12-07T07:50:13;6.80;;;3.67;;
22829;SDS011;11581;51.250;6.778;2022-12-07T07:52:39;9.98;;;4.25;;
22829;SDS011;11581;51.250;6.778;2022-12-07T07:55:06;7.45;;;3.80;;
22829;SDS011;11581;51.250;6.778;2022-12-07T07:57:34;7.88;;;3.88;;
22829;SDS011;11581;51.250;6.778;2022-12-07T08:00:04;4.35;;;3.10;;
22829;SDS011;11581;51.250;6.778;2022-12-07T08:02:37;11.50;;;4.15;;
22829;SDS011;11581;51.250;6.778;2022-12-07T08:05:05;7.45;;;3.63;;
22829;SDS011;11581;51.250;6.778;2022-12-07T08:07:33;9.32;;;4.00;;
22829;SDS011;11581;51.250;6.778;2022-12-07T08:10:02;5.22;;;3.60;;
22829;SDS011;11581;51.250;6.778;2022-12-07T08:12:30;6.30;;;3.78;;
22829;SDS011;11581;51.250;6.778;2022-12-07T08:14:56;8.63;;;4.38;;
22829;SDS011;11581;51.250;6.778;2022-12-07T08:17:25;6.63;;;4.57;;
22829;SDS011;11581;51.250;6.778;2022-12-07T08:19:52;7.05;;;3.78;;
22829;SDS011;11581;51.250;6.778;2022-12-07T08:22:19;5.93;;;3.60;;
22829;SDS011;11581;51.250;6.778;2022-12-07T08:24:47;8.15;;;4.18;;
22829;SDS011;11581;51.250;6.778;2022-12-07T08:27:14;9.23;;;3.63;;
22829;SDS011;11581;51.250;6.778;2022-12-07T08:29:41;8.82;;;4.00;;
22829;SDS011;11581;51.250;6.778;2022-12-07T08:32:08;9.30;;;3.63;;
22829;SDS011;11581;51.250;6.778;2022-12-07T08:34:37;6.03;;;3.42;;
22829;SDS011;11581;51.250;6.778;2022-12-07T08:37:05;6.63;;;3.42;;
22829;SDS011;11581;51.250;6.778;2022-12-07T08:39:31;5.90;;;3.20;;
22829;SDS011;11581;51.250;6.778;2022-12-07T08:42:01;4.90;;;3.17;;
22829;SDS011;11581;51.250;6.778;2022-12-07T08:44:30;8.32;;;3.42;;
22829;SDS011;11581;51.250;6.778;2022-12-07T08:46:58;9.30;;;3.70;;
22829;SDS011;11581;51.250;6.778;2022-12-07T08:49:30;9.98;;;3.45;;
22829;SDS011;11581;51.250;6.778;2022-12-07T08:52:01;5.68;;;3.13;;
22829;SDS011;11581;51.250;6.778;2022-12-07T08:54:31;5.68;;;2.80;;
22829;SDS011;11581;51.250;6.778;2022-12-07T08:57:01;5.68;;;2.95;;
22829;SDS011;11581;51.250;6.778;2022-12-07T08:59:27;6.57;;;3.00;;
22829;SDS011;11581;51.250;6.778;2022-12-07T09:01:55;7.43;;;3.40;;
22829;SDS011;11581;51.250;6.778;2022-12-07T09:04:22;6.22;;;3.10;;
22829;SDS011;11581;51.250;6.778;2022-12-07T09:06:48;6.00;;;3.13;;
22829;SDS011;11581;51.250;6.778;2022-12-07T09:09:17;7.25;;;2.85;;
22829;SDS011;11581;51.250;6.778;2022-12-07T09:11:43;5.63;;;3.25;;
22829;SDS011;11581;51.250;6.778;2022-12-07T09:14:11;5.43;;;3.03;;
22829;SDS011;11581;51.250;6.778;2022-12-07T09:16:39;6.22;;;2.90;;
22829;SDS011;11581;51.250;6.778;2022-12-07T09:19:07;6.45;;;2.83;;
22829;SDS011;11581;51.250;6.778;2022-12-07T09:21:35;9.73;;;3.08;;
22829;SDS011;11581;51.250;6.778;2022-12-07T09:24:02;5.90;;;3.10;;
22829;SDS011;11581;51.250;6.778;2022-12-07T09:26:30;8.10;;;3.10;;
22829;SDS011;11581;51.250;6.778;2022-12-07T09:28:58;7.95;;;2.72;;
22829;SDS011;11581;51.250;6.778;2022-12-07T09:31:25;5.03;;;2.83;;
22829;SDS011;11581;51.250;6.778;2022-12-07T09:33:55;4.03;;;2.67;;
22829;SDS011;11581;51.250;6.778;2022-12-07T09:36:25;5.07;;;3.13;;
22829;SDS011;11581;51.250;6.778;2022-12-07T09:38:54;6.50;;;2.50;;
22829;SDS011;11581;51.250;6.778;2022-12-07T09:41:22;5.07;;;2.58;;
22829;SDS011;11581;51.250;6.778;2022-12-07T09:43:57;7.00;;;2.72;;
22829;SDS011;11581;51.250;6.778;2022-12-07T09:46:29;6.30;;;2.97;;
22829;SDS011;11581;51.250;6.778;2022-12-07T09:49:02;7.15;;;2.50;;
22829;SDS011;11581;51.250;6.778;2022-12-07T09:51:29;6.65;;;3.00;;
22829;SDS011;11581;51.250;6.778;2022-12-07T09:53:56;7.20;;;3.28;;
22829;SDS011;11581;51.250;6.778;2022-12-07T09:56:24;6.70;;;3.17;;
22829;SDS011;11581;51.250;6.778;2022-12-07T09:58:53;7.78;;;3.13;;
22829;SDS011;11581;51.250;6.778;2022-12-07T10:01:27;6.40;;;3.40;;
22829;SDS011;11581;51.250;6.778;2022-12-07T10:03:59;6.60;;;2.95;;
22829;SDS011;11581;51.250;6.778;2022-12-07T10:06:35;4.38;;;2.55;;
22829;SDS011;11581;51.250;6.778;2022-12-07T10:09:02;7.47;;;2.65;;
22829;SDS011;11581;51.250;6.778;2022-12-07T10:11:28;6.53;;;2.75;;
22829;SDS011;11581;51.250;6.778;2022-12-07T10:13:55;6.60;;;2.70;;
22829;SDS011;11581;51.250;6.778;2022-12-07T10:16:39;6.03;;;2.75;;
22829;SDS011;11581;51.250;6.778;2022-12-07T10:19:17;6.18;;;2.42;;
22829;SDS011;11581;51.250;6.778;2022-12-07T10:22:00;4.63;;;2.33;;
22829;SDS011;11581;51.250;6.778;2022-12-07T10:24:30;7.90;;;2.80;;
22829;SDS011;11581;51.250;6.778;2022-12-07T10:26:57;7.07;;;2.47;;
22829;SDS011;11581;51.250;6.778;2022-12-07T10:29:28;5.35;;;2.60;;
22829;SDS011;11581;51.250;6.778;2022-12-07T10:31:57;5.88;;;2.72;;
22829;SDS011;11581;51.250;6.778;2022-12-07T10:34:25;4.53;;;2.17;;
22829;SDS011;11581;51.250;6.778;2022-12-07T10:36:54;5.63;;;2.75;;
22829;SDS011;11581;51.250;6.778;2022-12-07T10:39:40;7.25;;;3.13;;
22829;SDS011;11581;51.250;6.778;2022-12-07T10:42:09;7.90;;;3.35;;
22829;SDS011;11581;51.250;6.778;2022-12-07T10:44:44;6.07;;;2.75;;
22829;SDS011;11581;51.250;6.778;2022-12-07T10:47:17;5.68;;;2.50;;
22829;SDS011;11581;51.250;6.778;2022-12-07T10:49:57;7.10;;;2.70;;
22829;SDS011;11581;51.250;6.778;2022-12-07T10:52:45;5.25;;;2.30;;
22829;SDS011;11581;51.250;6.778;2022-12-07T10:55:33;7.45;;;2.53;;
22829;SDS011;11581;51.250;6.778;2022-12-07T10:58:19;7.85;;;2.33;;
22829;SDS011;11581;51.250;6.778;2022-12-07T11:01:01;5.28;;;2.70;;
22829;SDS011;11581;51.250;6.778;2022-12-07T11:03:39;7.32;;;2.15;;
22829;SDS011;11581;51.250;6.778;2022-12-07T11:06:20;7.30;;;2.80;;
22829;SDS011;11581;51.250;6.778;2022-12-07T11:09:04;5.60;;;2.60;;
22829;SDS011;11581;51.250;6.778;2022-12-07T11:11:59;6.20;;;2.47;;
22829;SDS011;11581;51.250;6.778;2022-12-07T11:14:37;11.27;;;2.38;;
22829;SDS011;11581;51.250;6.778;2022-12-07T11:17:14;5.93;;;2.67;;
22829;SDS011;11581;51.250;6.778;2022-12-07T11:19:49;5.97;;;2.35;;
22829;SDS011;11581;51.250;6.778;2022-12-07T11:22:30;7.63;;;2.33;;
22829;SDS011;11581;51.250;6.778;2022-12-07T11:25:13;5.45;;;2.10;;
22829;SDS011;11581;51.250;6.778;2022-12-07T11:27:45;8.13;;;2.25;;
22829;SDS011;11581;51.250;6.778;2022-12-07T11:30:17;8.10;;;2.20;;
22829;SDS011;11581;51.250;6.778;2022-12-07T11:32:59;4.45;;;2.00;;
22829;SDS011;11581;51.250;6.778;2022-12-07T11:35:38;4.28;;;1.90;;
22829;SDS011;11581;51.250;6.778;2022-12-07T11:38:14;6.10;;;2.15;;
22829;SDS011;11581;51.250;6.778;2022-12-07T11:40:43;7.55;;;2.08;;
22829;SDS011;11581;51.250;6.778;2022-12-07T11:43:17;5.43;;;2.05;;
22829;SDS011;11581;51.250;6.778;2022-12-07T11:45:52;6.15;;;2.50;;
22829;SDS011;11581;51.250;6.778;2022-12-07T11:48:28;4.50;;;1.90;;
22829;SDS011;11581;51.250;6.778;2022-12-07T11:51:00;7.38;;;2.00;;
22829;SDS011;11581;51.250;6.778;2022-12-07T11:53:31;6.53;;;1.98;;
22829;SDS011;11581;51.250;6.778;2022-12-07T11:56:06;5.10;;;1.88;;
22829;SDS011;11581;51.250;6.778;2022-12-07T11:58:40;7.07;;;2.25;;
22829;SDS011;11581;51.250;6.778;2022-12-07T12:01:16;10.20;;;2.25;;
22829;SDS011;11581;51.250;6.778;2022-12-07T12:03:56;5.78;;;2.63;;
22829;SDS011;11581;51.250;6.778;2022-12-07T12:08:55;5.40;;;1.85;;
22829;SDS011;11581;51.250;6.778;2022-12-07T12:11:33;5.25;;;2.38;;
22829;SDS011;11581;51.250;6.778;2022-12-07T12:14:20;5.55;;;2.45;;
22829;SDS011;11581;51.250;6.778;2022-12-07T12:17:09;5.97;;;2.40;;
22829;SDS011;11581;51.250;6.778;2022-12-07T12:19:57;5.15;;;1.95;;
22829;SDS011;11581;51.250;6.778;2022-12-07T12:22:32;7.15;;;2.58;;
22829;SDS011;11581;51.250;6.778;2022-12-07T12:25:03;9.25;;;2.92;;
22829;SDS011;11581;51.250;6.778;2022-12-07T12:27:32;7.90;;;2.78;;
22829;SDS011;11581;51.250;6.778;2022-12-07T12:30:03;5.53;;;2.10;;
22829;SDS011;11581;51.250;6.778;2022-12-07T12:32:51;6.55;;;2.00;;
22829;SDS011;11581;51.250;6.778;2022-12-07T12:35:27;7.07;;;2.40;;
22829;SDS011;11581;51.250;6.778;2022-12-07T12:37:56;7.68;;;2.20;;
22829;SDS011;11581;51.250;6.778;2022-12-07T12:40:58;7.57;;;2.03;;
22829;SDS011;11581;51.250;6.778;2022-12-07T12:43:42;7.90;;;2.85;;
22829;SDS011;11581;51.250;6.778;2022-12-07T12:49:33;8.40;;;2.08;;
22829;SDS011;11581;51.250;6.778;2022-12-07T12:55:18;6.35;;;2.15;;
22829;SDS011;11581;51.250;6.778;2022-12-07T13:03:51;7.18;;;2.97;;
22829;SDS011;11581;51.250;6.778;2022-12-07T13:06:20;5.65;;;2.45;;
22829;SDS011;11581;51.250;6.778;2022-12-07T13:09:00;6.28;;;2.35;;
22829;SDS011;11581;51.250;6.778;2022-12-07T13:11:29;7.43;;;2.30;;
22829;SDS011;11581;51.250;6.778;2022-12-07T13:23:16;4.25;;;1.77;;
22829;SDS011;11581;51.250;6.778;2022-12-07T13:25:48;6.00;;;1.83;;
22829;SDS011;11581;51.250;6.778;2022-12-07T13:28:22;6.30;;;1.40;;
22829;SDS011;11581;51.250;6.778;2022-12-07T13:31:04;5.10;;;1.83;;
22829;SDS011;11581;51.250;6.778;2022-12-07T13:33:39;7.43;;;1.80;;
22829;SDS011;11581;51.250;6.778;2022-12-07T13:36:12;5.22;;;1.42;;
22829;SDS011;11581;51.250;6.778;2022-12-07T13:38:53;5.93;;;1.80;;
22829;SDS011;11581;51.250;6.778;2022-12-07T13:41:22;6.63;;;1.58;;
22829;SDS011;11581;51.250;6.778;2022-12-07T13:43:53;6.25;;;1.58;;
22829;SDS011;11581;51.250;6.778;2022-12-07T13:46:29;5.88;;;1.40;;
22829;SDS011;11581;51.250;6.778;2022-12-07T13:49:02;3.90;;;1.13;;
22829;SDS011;11581;51.250;6.778;2022-12-07T13:51:33;2.97;;;1.45;;
22829;SDS011;11581;51.250;6.778;2022-12-07T13:54:06;4.22;;;1.50;;
22829;SDS011;11581;51.250;6.778;2022-12-07T13:56:38;4.45;;;1.80;;
22829;SDS011;11581;51.250;6.778;2022-12-07T13:59:09;4.32;;;1.33;;
22829;SDS011;11581;51.250;6.778;2022-12-07T14:07:00;3.67;;;1.15;;
22829;SDS011;11581;51.250;6.778;2022-12-07T14:09:28;6.13;;;1.17;;
22829;SDS011;11581;51.250;6.778;2022-12-07T14:11:56;3.95;;;1.45;;
22829;SDS011;11581;51.250;6.778;2022-12-07T14:14:27;7.47;;;1.25;;
22829;SDS011;11581;51.250;6.778;2022-12-07T14:17:01;5.07;;;1.33;;
22829;SDS011;11581;51.250;6.778;2022-12-07T14:19:40;5.35;;;1.20;;
22829;SDS011;11581;51.250;6.778;2022-12-07T14:22:15;6.57;;;1.55;;
22829;SDS011;11581;51.250;6.778;2022-12-07T14:24:46;4.00;;;1.55;;
22829;SDS011;11581;51.250;6.778;2022-12-07T14:27:17;3.55;;;1.02;;
22829;SDS011;11581;51.250;6.778;2022-12-07T14:29:47;3.38;;;1.02;;
22829;SDS011;11581;51.250;6.778;2022-12-07T14:32:18;4.85;;;1.48;;
22829;SDS011;11581;51.250;6.778;2022-12-07T14:37:23;3.58;;;1.20;;
22829;SDS011;11581;51.250;6.778;2022-12-07T14:39:50;4.07;;;1.25;;
22829;SDS011;11581;51.250;6.778;2022-12-07T14:42:17;9.55;;;1.83;;
22829;SDS011;11581;51.250;6.778;2022-12-07T14:44:47;6.78;;;1.80;;
22829;SDS011;11581;51.250;6.778;2022-12-07T14:47:14;6.13;;;1.55;;
22829;SDS011;11581;51.250;6.778;2022-12-07T14:49:42;5.18;;;1.50;;
22829;SDS011;11581;51.250;6.778;2022-12-07T14:52:11;6.10;;;1.98;;
22829;SDS011;11581;51.250;6.778;2022-12-07T14:57:10;8.00;;;1.65;;
22829;SDS011;11581;51.250;6.778;2022-12-07T14:59:37;7.15;;;1.80;;
22829;SDS011;11581;51.250;6.778;2022-12-07T15:02:05;7.78;;;2.00;;
22829;SDS011;11581;51.250;6.778;2022-12-07T15:04:35;5.38;;;1.88;;
22829;SDS011;11581;51.250;6.778;2022-12-07T15:07:03;5.47;;;2.00;;
22829;SDS011;11581;51.250;6.778;2022-12-07T15:09:31;6.70;;;2.28;;
22829;SDS011;11581;51.250;6.778;2022-12-07T15:11:58;5.97;;;1.50;;
22829;SDS011;11581;51.250;6.778;2022-12-07T15:14:25;9.15;;;1.73;;
22829;SDS011;11581;51.250;6.778;2022-12-07T15:16:52;6.70;;;2.05;;
22829;SDS011;11581;51.250;6.778;2022-12-07T15:19:22;4.07;;;1.60;;
22829;SDS011;11581;51.250;6.778;2022-12-07T15:21:51;8.57;;;2.00;;
22829;SDS011;11581;51.250;6.778;2022-12-07T15:24:18;8.07;;;2.13;;
22829;SDS011;11581;51.250;6.778;2022-12-07T15:26:45;7.07;;;2.45;;
22829;SDS011;11581;51.250;6.778;2022-12-07T15:29:13;5.95;;;1.73;;
22829;SDS011;11581;51.250;6.778;2022-12-07T15:31:41;4.95;;;1.50;;
22829;SDS011;11581;51.250;6.778;2022-12-07T15:34:08;8.35;;;1.80;;
22829;SDS011;11581;51.250;6.778;2022-12-07T15:36:38;7.70;;;2.40;;
22829;SDS011;11581;51.250;6.778;2022-12-07T15:39:05;4.57;;;1.73;;
22829;SDS011;11581;51.250;6.778;2022-12-07T15:41:32;6.50;;;1.98;;
22829;SDS011;11581;51.250;6.778;2022-12-07T15:43:59;8.57;;;1.90;;
22829;SDS011;11581;51.250;6.778;2022-12-07T15:49:11;7.47;;;2.05;;
22829;SDS011;11581;51.250;6.778;2022-12-07T15:51:41;15.38;;;2.13;;
22829;SDS011;11581;51.250;6.778;2022-12-07T15:54:11;4.95;;;1.95;;